sensor_id;sensor_type;location;lat;lon;timestamp;P1;durP1;ratioP1;P2;durP2;ratioP2
56577;SDS011;42461;53.192;5.646;2022-09-09T00:01:11;9.95;;;8.95;;
56577;SDS011;42461;53.192;5.646;2022-09-09T00:03:44;17.20;;;9.55;;
56577;SDS011;42461;53.192;5.646;2022-09-09T00:06:23;11.38;;;10.23;;
56577;SDS011;42461;53.192;5.646;2022-09-09T00:14:08;13.32;;;10.70;;
56577;SDS011;42461;53.192;5.646;2022-09-09T00:16:38;13.57;;;10.38;;
56577;SDS011;42461;53.192;5.646;2022-09-09T00:19:16;14.25;;;10.95;;
56577;SDS011;42461;53.192;5.646;2022-09-09T00:21:47;13.82;;;10.82;;
56577;SDS011;42461;53.192;5.646;2022-09-09T00:24:23;15.18;;;11.23;;
56577;SDS011;42461;53.192;5.646;2022-09-09T00:29:33;16.33;;;11.00;;
56577;SDS011;42461;53.192;5.646;2022-09-09T00:32:04;14.82;;;10.43;;
56577;SDS011;42461;53.192;5.646;2022-09-09T00:34:31;13.85;;;10.80;;
56577;SDS011;42461;53.192;5.646;2022-09-09T00:36:58;16.95;;;10.40;;
56577;SDS011;42461;53.192;5.646;2022-09-09T00:39:31;13.32;;;9.25;;
56577;SDS011;42461;53.192;5.646;2022-09-09T00:44:34;11.50;;;9.95;;
56577;SDS011;42461;53.192;5.646;2022-09-09T00:49:46;11.77;;;9.40;;
56577;SDS011;42461;53.192;5.646;2022-09-09T00:54:52;13.38;;;10.70;;
56577;SDS011;42461;53.192;5.646;2022-09-09T00:59:56;11.55;;;9.48;;
56577;SDS011;42461;53.192;5.646;2022-09-09T01:02:31;10.45;;;9.27;;
56577;SDS011;42461;53.192;5.646;2022-09-09T01:05:05;12.20;;;9.60;;
56577;SDS011;42461;53.192;5.646;2022-09-09T01:07:32;13.13;;;10.07;;
56577;SDS011;42461;53.192;5.646;2022-09-09T01:09:59;12.32;;;9.85;;
56577;SDS011;42461;53.192;5.646;2022-09-09T01:12:34;10.57;;;9.57;;
56577;SDS011;42461;53.192;5.646;2022-09-09T01:20:08;12.52;;;9.77;;
56577;SDS011;42461;53.192;5.646;2022-09-09T01:22:44;12.45;;;9.38;;
56577;SDS011;42461;53.192;5.646;2022-09-09T01:28:00;11.02;;;9.38;;
56577;SDS011;42461;53.192;5.646;2022-09-09T01:30:28;12.52;;;9.60;;
56577;SDS011;42461;53.192;5.646;2022-09-09T01:32:55;10.90;;;9.20;;
56577;SDS011;42461;53.192;5.646;2022-09-09T01:37:49;12.93;;;9.38;;
56577;SDS011;42461;53.192;5.646;2022-09-09T01:40:15;9.48;;;8.40;;
56577;SDS011;42461;53.192;5.646;2022-09-09T01:42:41;10.20;;;9.20;;
56577;SDS011;42461;53.192;5.646;2022-09-09T01:45:07;10.57;;;8.90;;
56577;SDS011;42461;53.192;5.646;2022-09-09T01:47:34;9.38;;;8.20;;
56577;SDS011;42461;53.192;5.646;2022-09-09T01:50:00;10.82;;;8.93;;
56577;SDS011;42461;53.192;5.646;2022-09-09T01:52:27;12.10;;;9.10;;
56577;SDS011;42461;53.192;5.646;2022-09-09T01:54:54;13.20;;;9.50;;
56577;SDS011;42461;53.192;5.646;2022-09-09T02:02:17;8.82;;;7.93;;
56577;SDS011;42461;53.192;5.646;2022-09-09T02:07:21;13.30;;;8.68;;
56577;SDS011;42461;53.192;5.646;2022-09-09T02:09:52;11.50;;;8.63;;
56577;SDS011;42461;53.192;5.646;2022-09-09T02:12:20;10.60;;;9.00;;
56577;SDS011;42461;53.192;5.646;2022-09-09T02:15:00;10.38;;;9.25;;
56577;SDS011;42461;53.192;5.646;2022-09-09T02:17:29;14.57;;;8.82;;
56577;SDS011;42461;53.192;5.646;2022-09-09T02:20:03;11.65;;;8.90;;
56577;SDS011;42461;53.192;5.646;2022-09-09T02:22:31;11.75;;;9.10;;
56577;SDS011;42461;53.192;5.646;2022-09-09T02:24:59;11.55;;;8.80;;
56577;SDS011;42461;53.192;5.646;2022-09-09T02:27:26;10.50;;;8.88;;
56577;SDS011;42461;53.192;5.646;2022-09-09T02:29:53;11.02;;;8.70;;
56577;SDS011;42461;53.192;5.646;2022-09-09T02:32:20;10.35;;;8.77;;
56577;SDS011;42461;53.192;5.646;2022-09-09T02:34:48;12.48;;;10.45;;
56577;SDS011;42461;53.192;5.646;2022-09-09T02:37:17;11.52;;;9.23;;
56577;SDS011;42461;53.192;5.646;2022-09-09T02:39:44;16.20;;;9.60;;
56577;SDS011;42461;53.192;5.646;2022-09-09T02:42:10;11.77;;;9.15;;
56577;SDS011;42461;53.192;5.646;2022-09-09T02:44:36;10.52;;;9.20;;
56577;SDS011;42461;53.192;5.646;2022-09-09T02:49:35;11.00;;;8.93;;
56577;SDS011;42461;53.192;5.646;2022-09-09T02:52:12;11.57;;;9.60;;
56577;SDS011;42461;53.192;5.646;2022-09-09T02:54:41;12.52;;;9.32;;
56577;SDS011;42461;53.192;5.646;2022-09-09T02:59:35;10.38;;;9.20;;
56577;SDS011;42461;53.192;5.646;2022-09-09T03:02:01;11.60;;;8.98;;
56577;SDS011;42461;53.192;5.646;2022-09-09T03:04:27;11.05;;;9.85;;
56577;SDS011;42461;53.192;5.646;2022-09-09T03:06:55;11.63;;;9.30;;
56577;SDS011;42461;53.192;5.646;2022-09-09T03:09:21;11.32;;;9.32;;
56577;SDS011;42461;53.192;5.646;2022-09-09T03:11:47;11.75;;;9.15;;
56577;SDS011;42461;53.192;5.646;2022-09-09T03:14:14;11.98;;;8.32;;
56577;SDS011;42461;53.192;5.646;2022-09-09T03:16:40;10.48;;;9.10;;
56577;SDS011;42461;53.192;5.646;2022-09-09T03:19:08;10.15;;;9.15;;
56577;SDS011;42461;53.192;5.646;2022-09-09T03:21:34;11.38;;;9.40;;
56577;SDS011;42461;53.192;5.646;2022-09-09T03:24:00;10.63;;;9.52;;
56577;SDS011;42461;53.192;5.646;2022-09-09T03:26:28;10.95;;;9.43;;
56577;SDS011;42461;53.192;5.646;2022-09-09T03:28:55;10.38;;;9.35;;
56577;SDS011;42461;53.192;5.646;2022-09-09T03:31:21;10.70;;;9.32;;
56577;SDS011;42461;53.192;5.646;2022-09-09T03:33:47;11.38;;;9.27;;
56577;SDS011;42461;53.192;5.646;2022-09-09T03:36:14;10.10;;;9.10;;
56577;SDS011;42461;53.192;5.646;2022-09-09T03:38:40;13.43;;;10.25;;
56577;SDS011;42461;53.192;5.646;2022-09-09T03:41:06;11.02;;;9.95;;
56577;SDS011;42461;53.192;5.646;2022-09-09T03:43:33;11.00;;;9.93;;
56577;SDS011;42461;53.192;5.646;2022-09-09T03:45:59;11.48;;;10.32;;
56577;SDS011;42461;53.192;5.646;2022-09-09T03:48:25;11.13;;;10.00;;
56577;SDS011;42461;53.192;5.646;2022-09-09T03:50:53;11.55;;;10.07;;
56577;SDS011;42461;53.192;5.646;2022-09-09T03:53:21;11.15;;;8.55;;
56577;SDS011;42461;53.192;5.646;2022-09-09T03:55:49;12.00;;;9.25;;
56577;SDS011;42461;53.192;5.646;2022-09-09T03:58:18;10.10;;;8.75;;
56577;SDS011;42461;53.192;5.646;2022-09-09T04:00:52;11.05;;;9.18;;
56577;SDS011;42461;53.192;5.646;2022-09-09T04:03:18;9.43;;;8.52;;
56577;SDS011;42461;53.192;5.646;2022-09-09T04:05:45;11.13;;;8.40;;
56577;SDS011;42461;53.192;5.646;2022-09-09T04:08:10;8.95;;;8.13;;
56577;SDS011;42461;53.192;5.646;2022-09-09T04:10:36;9.90;;;8.02;;
56577;SDS011;42461;53.192;5.646;2022-09-09T04:13:03;8.55;;;7.55;;
56577;SDS011;42461;53.192;5.646;2022-09-09T04:15:30;11.32;;;8.35;;
56577;SDS011;42461;53.192;5.646;2022-09-09T04:17:56;8.90;;;7.22;;
56577;SDS011;42461;53.192;5.646;2022-09-09T04:20:22;7.47;;;6.65;;
56577;SDS011;42461;53.192;5.646;2022-09-09T04:22:49;8.95;;;7.07;;
56577;SDS011;42461;53.192;5.646;2022-09-09T04:25:15;7.80;;;6.78;;
56577;SDS011;42461;53.192;5.646;2022-09-09T04:27:41;7.32;;;6.60;;
56577;SDS011;42461;53.192;5.646;2022-09-09T04:30:07;7.10;;;6.38;;
56577;SDS011;42461;53.192;5.646;2022-09-09T04:32:34;7.78;;;6.97;;
56577;SDS011;42461;53.192;5.646;2022-09-09T04:35:01;7.60;;;6.00;;
56577;SDS011;42461;53.192;5.646;2022-09-09T04:37:27;8.98;;;6.68;;
56577;SDS011;42461;53.192;5.646;2022-09-09T04:39:53;8.35;;;6.63;;
56577;SDS011;42461;53.192;5.646;2022-09-09T04:42:19;9.27;;;6.72;;
56577;SDS011;42461;53.192;5.646;2022-09-09T04:44:45;7.13;;;6.43;;
56577;SDS011;42461;53.192;5.646;2022-09-09T04:47:11;7.80;;;6.05;;
56577;SDS011;42461;53.192;5.646;2022-09-09T04:49:39;7.18;;;5.95;;
56577;SDS011;42461;53.192;5.646;2022-09-09T04:52:06;7.95;;;6.57;;
56577;SDS011;42461;53.192;5.646;2022-09-09T04:54:32;8.65;;;7.15;;
56577;SDS011;42461;53.192;5.646;2022-09-09T04:56:58;8.50;;;6.80;;
56577;SDS011;42461;53.192;5.646;2022-09-09T04:59:24;8.50;;;7.00;;
56577;SDS011;42461;53.192;5.646;2022-09-09T05:01:50;8.20;;;6.68;;
56577;SDS011;42461;53.192;5.646;2022-09-09T05:04:16;8.48;;;7.15;;
56577;SDS011;42461;53.192;5.646;2022-09-09T05:06:42;7.70;;;6.90;;
56577;SDS011;42461;53.192;5.646;2022-09-09T05:09:08;10.77;;;7.90;;
56577;SDS011;42461;53.192;5.646;2022-09-09T05:11:34;9.43;;;7.15;;
56577;SDS011;42461;53.192;5.646;2022-09-09T05:14:03;7.78;;;6.97;;
56577;SDS011;42461;53.192;5.646;2022-09-09T05:16:30;8.93;;;7.55;;
56577;SDS011;42461;53.192;5.646;2022-09-09T05:18:56;10.13;;;7.40;;
56577;SDS011;42461;53.192;5.646;2022-09-09T05:21:23;10.75;;;7.93;;
56577;SDS011;42461;53.192;5.646;2022-09-09T05:23:51;9.80;;;7.75;;
56577;SDS011;42461;53.192;5.646;2022-09-09T05:26:18;12.25;;;8.30;;
56577;SDS011;42461;53.192;5.646;2022-09-09T05:28:44;9.05;;;8.15;;
56577;SDS011;42461;53.192;5.646;2022-09-09T05:31:11;11.77;;;8.30;;
56577;SDS011;42461;53.192;5.646;2022-09-09T05:33:38;9.25;;;8.35;;
56577;SDS011;42461;53.192;5.646;2022-09-09T05:36:11;11.68;;;8.15;;
56577;SDS011;42461;53.192;5.646;2022-09-09T05:38:40;9.07;;;7.93;;
56577;SDS011;42461;53.192;5.646;2022-09-09T05:41:06;9.32;;;8.20;;
56577;SDS011;42461;53.192;5.646;2022-09-09T05:43:33;10.18;;;8.48;;
56577;SDS011;42461;53.192;5.646;2022-09-09T05:46:04;9.50;;;8.23;;
56577;SDS011;42461;53.192;5.646;2022-09-09T05:48:32;9.88;;;8.20;;
56577;SDS011;42461;53.192;5.646;2022-09-09T05:50:59;13.00;;;8.95;;
56577;SDS011;42461;53.192;5.646;2022-09-09T05:53:26;10.20;;;9.07;;
56577;SDS011;42461;53.192;5.646;2022-09-09T05:56:06;11.48;;;8.85;;
56577;SDS011;42461;53.192;5.646;2022-09-09T05:58:32;10.88;;;9.80;;
56577;SDS011;42461;53.192;5.646;2022-09-09T06:01:06;12.65;;;9.88;;
56577;SDS011;42461;53.192;5.646;2022-09-09T06:03:35;12.23;;;10.13;;
56577;SDS011;42461;53.192;5.646;2022-09-09T06:06:03;11.48;;;10.32;;
56577;SDS011;42461;53.192;5.646;2022-09-09T06:08:36;11.88;;;10.65;;
56577;SDS011;42461;53.192;5.646;2022-09-09T06:11:08;11.68;;;10.52;;
56577;SDS011;42461;53.192;5.646;2022-09-09T06:13:34;15.07;;;11.10;;
56577;SDS011;42461;53.192;5.646;2022-09-09T06:16:02;12.25;;;10.95;;
56577;SDS011;42461;53.192;5.646;2022-09-09T06:18:29;13.40;;;12.00;;
56577;SDS011;42461;53.192;5.646;2022-09-09T06:21:03;13.40;;;11.43;;
56577;SDS011;42461;53.192;5.646;2022-09-09T06:23:29;12.07;;;10.80;;
56577;SDS011;42461;53.192;5.646;2022-09-09T06:28:28;11.93;;;10.73;;
56577;SDS011;42461;53.192;5.646;2022-09-09T06:31:04;12.82;;;11.05;;
56577;SDS011;42461;53.192;5.646;2022-09-09T06:33:30;15.35;;;10.80;;
56577;SDS011;42461;53.192;5.646;2022-09-09T06:35:57;12.27;;;10.15;;
56577;SDS011;42461;53.192;5.646;2022-09-09T06:38:23;12.15;;;10.93;;
56577;SDS011;42461;53.192;5.646;2022-09-09T06:40:52;12.05;;;10.85;;
56577;SDS011;42461;53.192;5.646;2022-09-09T06:43:20;12.60;;;10.77;;
56577;SDS011;42461;53.192;5.646;2022-09-09T06:45:52;12.52;;;11.23;;
56577;SDS011;42461;53.192;5.646;2022-09-09T06:48:18;14.95;;;11.18;;
56577;SDS011;42461;53.192;5.646;2022-09-09T06:50:44;12.07;;;10.25;;
56577;SDS011;42461;53.192;5.646;2022-09-09T06:53:11;13.38;;;9.73;;
56577;SDS011;42461;53.192;5.646;2022-09-09T06:55:37;11.57;;;9.48;;
56577;SDS011;42461;53.192;5.646;2022-09-09T06:58:08;12.45;;;9.45;;
56577;SDS011;42461;53.192;5.646;2022-09-09T07:00:34;10.88;;;9.40;;
56577;SDS011;42461;53.192;5.646;2022-09-09T07:03:02;10.27;;;8.75;;
56577;SDS011;42461;53.192;5.646;2022-09-09T07:05:29;11.77;;;8.95;;
56577;SDS011;42461;53.192;5.646;2022-09-09T07:07:54;9.77;;;8.50;;
56577;SDS011;42461;53.192;5.646;2022-09-09T07:10:20;11.23;;;9.27;;
56577;SDS011;42461;53.192;5.646;2022-09-09T07:12:50;10.20;;;7.90;;
56577;SDS011;42461;53.192;5.646;2022-09-09T07:15:17;8.88;;;7.93;;
56577;SDS011;42461;53.192;5.646;2022-09-09T07:17:47;9.10;;;8.20;;
56577;SDS011;42461;53.192;5.646;2022-09-09T07:20:14;10.90;;;8.15;;
56577;SDS011;42461;53.192;5.646;2022-09-09T07:22:40;9.20;;;8.25;;
56577;SDS011;42461;53.192;5.646;2022-09-09T07:25:07;11.52;;;7.97;;
56577;SDS011;42461;53.192;5.646;2022-09-09T07:27:33;11.15;;;7.82;;
56577;SDS011;42461;53.192;5.646;2022-09-09T07:29:59;9.57;;;7.57;;
56577;SDS011;42461;53.192;5.646;2022-09-09T07:32:25;9.02;;;7.75;;
56577;SDS011;42461;53.192;5.646;2022-09-09T07:34:51;11.70;;;8.25;;
56577;SDS011;42461;53.192;5.646;2022-09-09T07:37:17;9.80;;;7.63;;
56577;SDS011;42461;53.192;5.646;2022-09-09T07:39:43;8.55;;;7.43;;
56577;SDS011;42461;53.192;5.646;2022-09-09T07:42:10;8.35;;;7.55;;
56577;SDS011;42461;53.192;5.646;2022-09-09T07:44:36;7.82;;;7.13;;
56577;SDS011;42461;53.192;5.646;2022-09-09T07:47:04;9.55;;;7.22;;
56577;SDS011;42461;53.192;5.646;2022-09-09T07:49:30;8.38;;;7.22;;
56577;SDS011;42461;53.192;5.646;2022-09-09T07:51:57;8.93;;;7.47;;
56577;SDS011;42461;53.192;5.646;2022-09-09T07:54:24;7.95;;;7.10;;
56577;SDS011;42461;53.192;5.646;2022-09-09T07:56:51;9.85;;;6.72;;
56577;SDS011;42461;53.192;5.646;2022-09-09T07:59:17;9.02;;;6.85;;
56577;SDS011;42461;53.192;5.646;2022-09-09T08:01:47;15.52;;;14.15;;
56577;SDS011;42461;53.192;5.646;2022-09-09T08:04:14;7.53;;;6.70;;
56577;SDS011;42461;53.192;5.646;2022-09-09T08:06:42;6.47;;;5.75;;
56577;SDS011;42461;53.192;5.646;2022-09-09T08:09:09;8.55;;;6.00;;
56577;SDS011;42461;53.192;5.646;2022-09-09T08:11:36;6.70;;;5.70;;
56577;SDS011;42461;53.192;5.646;2022-09-09T08:14:02;8.05;;;5.57;;
56577;SDS011;42461;53.192;5.646;2022-09-09T08:16:30;8.48;;;5.95;;
56577;SDS011;42461;53.192;5.646;2022-09-09T08:18:56;7.43;;;6.10;;
56577;SDS011;42461;53.192;5.646;2022-09-09T08:21:23;8.68;;;5.75;;
56577;SDS011;42461;53.192;5.646;2022-09-09T08:23:51;8.50;;;5.50;;
56577;SDS011;42461;53.192;5.646;2022-09-09T08:26:19;7.55;;;5.43;;
56577;SDS011;42461;53.192;5.646;2022-09-09T08:28:47;8.15;;;5.22;;
56577;SDS011;42461;53.192;5.646;2022-09-09T08:31:17;7.82;;;5.28;;
56577;SDS011;42461;53.192;5.646;2022-09-09T08:33:43;6.05;;;5.45;;
56577;SDS011;42461;53.192;5.646;2022-09-09T08:36:11;7.35;;;5.35;;
56577;SDS011;42461;53.192;5.646;2022-09-09T08:38:40;7.18;;;4.85;;
56577;SDS011;42461;53.192;5.646;2022-09-09T08:41:17;6.63;;;4.95;;
56577;SDS011;42461;53.192;5.646;2022-09-09T08:43:48;8.85;;;4.80;;
56577;SDS011;42461;53.192;5.646;2022-09-09T08:46:26;9.23;;;5.18;;
56577;SDS011;42461;53.192;5.646;2022-09-09T08:49:11;11.18;;;5.40;;
56577;SDS011;42461;53.192;5.646;2022-09-09T08:51:39;8.35;;;4.57;;
56577;SDS011;42461;53.192;5.646;2022-09-09T08:54:07;7.35;;;5.00;;
56577;SDS011;42461;53.192;5.646;2022-09-09T08:56:35;9.00;;;5.32;;
56577;SDS011;42461;53.192;5.646;2022-09-09T08:59:01;7.85;;;4.68;;
56577;SDS011;42461;53.192;5.646;2022-09-09T09:04:10;6.75;;;5.28;;
56577;SDS011;42461;53.192;5.646;2022-09-09T09:06:50;9.30;;;5.30;;
56577;SDS011;42461;53.192;5.646;2022-09-09T09:09:21;9.15;;;4.70;;
56577;SDS011;42461;53.192;5.646;2022-09-09T09:11:52;6.97;;;5.00;;
56577;SDS011;42461;53.192;5.646;2022-09-09T09:19:17;8.20;;;5.82;;
56577;SDS011;42461;53.192;5.646;2022-09-09T09:21:44;8.27;;;4.97;;
56577;SDS011;42461;53.192;5.646;2022-09-09T09:24:14;8.25;;;4.88;;
56577;SDS011;42461;53.192;5.646;2022-09-09T09:26:43;7.10;;;4.78;;
56577;SDS011;42461;53.192;5.646;2022-09-09T09:29:13;9.10;;;5.45;;
56577;SDS011;42461;53.192;5.646;2022-09-09T09:31:42;5.57;;;4.82;;
56577;SDS011;42461;53.192;5.646;2022-09-09T09:34:08;8.50;;;4.55;;
56577;SDS011;42461;53.192;5.646;2022-09-09T09:36:41;9.10;;;4.93;;
56577;SDS011;42461;53.192;5.646;2022-09-09T09:39:09;8.43;;;5.10;;
56577;SDS011;42461;53.192;5.646;2022-09-09T09:41:36;7.90;;;4.35;;
56577;SDS011;42461;53.192;5.646;2022-09-09T09:44:03;6.93;;;4.05;;
56577;SDS011;42461;53.192;5.646;2022-09-09T09:46:31;5.35;;;3.70;;
56577;SDS011;42461;53.192;5.646;2022-09-09T09:49:01;7.35;;;4.00;;
56577;SDS011;42461;53.192;5.646;2022-09-09T09:51:29;7.97;;;3.50;;
56577;SDS011;42461;53.192;5.646;2022-09-09T09:54:41;6.13;;;4.00;;
56577;SDS011;42461;53.192;5.646;2022-09-09T09:56:44;7.25;;;3.22;;
56577;SDS011;42461;53.192;5.646;2022-09-09T09:59:32;7.28;;;3.20;;
56577;SDS011;42461;53.192;5.646;2022-09-09T10:02:36;8.25;;;3.35;;
56577;SDS011;42461;53.192;5.646;2022-09-09T10:07:37;7.18;;;2.88;;
56577;SDS011;42461;53.192;5.646;2022-09-09T10:10:04;7.45;;;3.50;;
56577;SDS011;42461;53.192;5.646;2022-09-09T10:15:02;5.38;;;2.63;;
56577;SDS011;42461;53.192;5.646;2022-09-09T10:22:44;6.38;;;2.47;;
56577;SDS011;42461;53.192;5.646;2022-09-09T10:25:17;7.20;;;2.53;;
56577;SDS011;42461;53.192;5.646;2022-09-09T10:37:58;11.02;;;3.10;;
56577;SDS011;42461;53.192;5.646;2022-09-09T10:43:23;5.28;;;2.92;;
56577;SDS011;42461;53.192;5.646;2022-09-09T10:45:47;6.88;;;2.70;;
56577;SDS011;42461;53.192;5.646;2022-09-09T10:48:22;4.50;;;2.00;;
56577;SDS011;42461;53.192;5.646;2022-09-09T10:56:16;8.07;;;2.78;;
56577;SDS011;42461;53.192;5.646;2022-09-09T10:58:49;8.38;;;2.58;;
56577;SDS011;42461;53.192;5.646;2022-09-09T11:03:43;9.02;;;2.83;;
56577;SDS011;42461;53.192;5.646;2022-09-09T11:06:16;6.80;;;2.30;;
56577;SDS011;42461;53.192;5.646;2022-09-09T11:08:44;5.13;;;2.20;;
56577;SDS011;42461;53.192;5.646;2022-09-09T11:11:16;5.53;;;2.28;;
56577;SDS011;42461;53.192;5.646;2022-09-09T11:16:29;7.03;;;2.17;;
56577;SDS011;42461;53.192;5.646;2022-09-09T11:19:03;5.07;;;2.28;;
56577;SDS011;42461;53.192;5.646;2022-09-09T11:21:32;9.27;;;2.67;;
56577;SDS011;42461;53.192;5.646;2022-09-09T11:24:01;7.07;;;2.45;;
56577;SDS011;42461;53.192;5.646;2022-09-09T11:26:40;6.10;;;2.80;;
56577;SDS011;42461;53.192;5.646;2022-09-09T11:31:58;7.05;;;2.65;;
56577;SDS011;42461;53.192;5.646;2022-09-09T11:39:55;5.57;;;2.85;;
56577;SDS011;42461;53.192;5.646;2022-09-09T11:42:23;4.63;;;2.60;;
56577;SDS011;42461;53.192;5.646;2022-09-09T11:44:50;8.38;;;2.83;;
56577;SDS011;42461;53.192;5.646;2022-09-09T11:49:46;6.10;;;2.35;;
56577;SDS011;42461;53.192;5.646;2022-09-09T11:54:49;7.03;;;2.40;;
56577;SDS011;42461;53.192;5.646;2022-09-09T11:57:23;4.88;;;2.15;;
56577;SDS011;42461;53.192;5.646;2022-09-09T11:59:51;6.93;;;2.55;;
56577;SDS011;42461;53.192;5.646;2022-09-09T12:02:24;8.90;;;2.75;;
56577;SDS011;42461;53.192;5.646;2022-09-09T12:12:34;6.18;;;2.33;;
56577;SDS011;42461;53.192;5.646;2022-09-09T12:17:49;7.63;;;2.80;;
56577;SDS011;42461;53.192;5.646;2022-09-09T12:27:59;7.45;;;2.38;;
56577;SDS011;42461;53.192;5.646;2022-09-09T12:30:35;7.78;;;2.90;;
56577;SDS011;42461;53.192;5.646;2022-09-09T12:33:06;6.85;;;3.13;;
56577;SDS011;42461;53.192;5.646;2022-09-09T12:35:34;5.28;;;1.88;;
56577;SDS011;42461;53.192;5.646;2022-09-09T12:38:03;5.22;;;2.63;;
56577;SDS011;42461;53.192;5.646;2022-09-09T12:40:35;6.47;;;1.92;;
56577;SDS011;42461;53.192;5.646;2022-09-09T12:43:01;7.07;;;2.15;;
56577;SDS011;42461;53.192;5.646;2022-09-09T12:45:31;5.40;;;2.25;;
56577;SDS011;42461;53.192;5.646;2022-09-09T12:50:25;5.13;;;1.85;;
56577;SDS011;42461;53.192;5.646;2022-09-09T12:52:52;6.50;;;2.25;;
56577;SDS011;42461;53.192;5.646;2022-09-09T12:55:21;7.07;;;2.35;;
56577;SDS011;42461;53.192;5.646;2022-09-09T12:57:50;5.68;;;1.95;;
56577;SDS011;42461;53.192;5.646;2022-09-09T13:00:20;9.00;;;2.65;;
56577;SDS011;42461;53.192;5.646;2022-09-09T13:02:48;5.45;;;2.35;;
56577;SDS011;42461;53.192;5.646;2022-09-09T13:05:16;5.18;;;2.03;;
56577;SDS011;42461;53.192;5.646;2022-09-09T13:07:43;11.05;;;2.90;;
56577;SDS011;42461;53.192;5.646;2022-09-09T13:10:12;6.20;;;2.08;;
56577;SDS011;42461;53.192;5.646;2022-09-09T13:12:38;6.70;;;2.20;;
56577;SDS011;42461;53.192;5.646;2022-09-09T13:15:05;5.78;;;2.20;;
56577;SDS011;42461;53.192;5.646;2022-09-09T13:17:36;6.47;;;2.35;;
56577;SDS011;42461;53.192;5.646;2022-09-09T13:20:03;6.45;;;2.22;;
56577;SDS011;42461;53.192;5.646;2022-09-09T13:22:31;5.28;;;1.90;;
56577;SDS011;42461;53.192;5.646;2022-09-09T13:25:00;3.97;;;2.15;;
56577;SDS011;42461;53.192;5.646;2022-09-09T13:27:32;5.82;;;2.03;;
56577;SDS011;42461;53.192;5.646;2022-09-09T13:29:59;4.43;;;2.03;;
56577;SDS011;42461;53.192;5.646;2022-09-09T13:32:26;9.45;;;2.00;;
56577;SDS011;42461;53.192;5.646;2022-09-09T13:34:53;4.13;;;1.95;;
56577;SDS011;42461;53.192;5.646;2022-09-09T13:39:52;4.05;;;2.63;;
56577;SDS011;42461;53.192;5.646;2022-09-09T13:42:24;6.63;;;5.03;;
56577;SDS011;42461;53.192;5.646;2022-09-09T13:44:50;6.50;;;3.05;;
56577;SDS011;42461;53.192;5.646;2022-09-09T13:47:17;4.55;;;1.50;;
56577;SDS011;42461;53.192;5.646;2022-09-09T13:49:48;5.72;;;1.38;;
56577;SDS011;42461;53.192;5.646;2022-09-09T13:54:42;1.85;;;1.00;;
56577;SDS011;42461;53.192;5.646;2022-09-09T13:57:19;3.80;;;1.75;;
56577;SDS011;42461;53.192;5.646;2022-09-09T13:59:45;3.63;;;2.13;;
56577;SDS011;42461;53.192;5.646;2022-09-09T14:02:12;4.45;;;2.55;;
56577;SDS011;42461;53.192;5.646;2022-09-09T14:04:38;4.90;;;2.58;;
56577;SDS011;42461;53.192;5.646;2022-09-09T14:07:08;5.38;;;2.63;;
56577;SDS011;42461;53.192;5.646;2022-09-09T14:09:35;5.53;;;3.03;;
56577;SDS011;42461;53.192;5.646;2022-09-09T14:12:01;5.47;;;2.95;;
56577;SDS011;42461;53.192;5.646;2022-09-09T14:14:27;5.78;;;2.90;;
56577;SDS011;42461;53.192;5.646;2022-09-09T14:16:53;4.40;;;2.72;;
56577;SDS011;42461;53.192;5.646;2022-09-09T14:19:19;3.15;;;2.28;;
56577;SDS011;42461;53.192;5.646;2022-09-09T14:21:45;5.93;;;2.42;;
56577;SDS011;42461;53.192;5.646;2022-09-09T14:24:11;3.83;;;2.33;;
56577;SDS011;42461;53.192;5.646;2022-09-09T14:26:37;6.00;;;2.22;;
56577;SDS011;42461;53.192;5.646;2022-09-09T14:29:03;5.35;;;2.17;;
56577;SDS011;42461;53.192;5.646;2022-09-09T14:31:29;6.18;;;2.20;;
56577;SDS011;42461;53.192;5.646;2022-09-09T14:33:55;3.72;;;2.22;;
56577;SDS011;42461;53.192;5.646;2022-09-09T14:36:21;4.53;;;2.08;;
56577;SDS011;42461;53.192;5.646;2022-09-09T14:38:49;4.43;;;2.33;;
56577;SDS011;42461;53.192;5.646;2022-09-09T14:41:16;4.00;;;2.05;;
56577;SDS011;42461;53.192;5.646;2022-09-09T14:43:43;5.75;;;2.20;;
56577;SDS011;42461;53.192;5.646;2022-09-09T14:46:10;3.22;;;1.70;;
56577;SDS011;42461;53.192;5.646;2022-09-09T14:48:36;3.15;;;1.90;;
56577;SDS011;42461;53.192;5.646;2022-09-09T14:51:05;5.13;;;2.20;;
56577;SDS011;42461;53.192;5.646;2022-09-09T14:53:31;4.65;;;2.40;;
56577;SDS011;42461;53.192;5.646;2022-09-09T14:56:04;4.72;;;2.58;;
56577;SDS011;42461;53.192;5.646;2022-09-09T14:58:30;3.88;;;2.10;;
56577;SDS011;42461;53.192;5.646;2022-09-09T15:01:09;3.17;;;2.28;;
56577;SDS011;42461;53.192;5.646;2022-09-09T15:03:35;3.97;;;2.35;;
56577;SDS011;42461;53.192;5.646;2022-09-09T15:06:11;2.92;;;2.00;;
56577;SDS011;42461;53.192;5.646;2022-09-09T15:08:39;4.13;;;2.38;;
56577;SDS011;42461;53.192;5.646;2022-09-09T15:11:05;3.33;;;1.88;;
56577;SDS011;42461;53.192;5.646;2022-09-09T15:13:35;2.70;;;1.75;;
56577;SDS011;42461;53.192;5.646;2022-09-09T15:16:09;2.63;;;1.95;;
56577;SDS011;42461;53.192;5.646;2022-09-09T15:18:35;5.65;;;1.85;;
56577;SDS011;42461;53.192;5.646;2022-09-09T15:21:07;4.43;;;1.95;;
56577;SDS011;42461;53.192;5.646;2022-09-09T15:23:34;2.60;;;1.75;;
56577;SDS011;42461;53.192;5.646;2022-09-09T15:26:01;2.22;;;1.98;;
56577;SDS011;42461;53.192;5.646;2022-09-09T15:28:27;2.90;;;1.92;;
56577;SDS011;42461;53.192;5.646;2022-09-09T15:30:53;3.08;;;2.00;;
56577;SDS011;42461;53.192;5.646;2022-09-09T15:33:20;4.90;;;2.30;;
56577;SDS011;42461;53.192;5.646;2022-09-09T15:35:47;4.25;;;2.20;;
56577;SDS011;42461;53.192;5.646;2022-09-09T15:38:15;3.80;;;2.28;;
56577;SDS011;42461;53.192;5.646;2022-09-09T15:40:42;4.60;;;2.45;;
56577;SDS011;42461;53.192;5.646;2022-09-09T15:43:08;5.15;;;2.30;;
56577;SDS011;42461;53.192;5.646;2022-09-09T15:45:35;3.15;;;2.08;;
56577;SDS011;42461;53.192;5.646;2022-09-09T15:48:02;5.63;;;2.30;;
56577;SDS011;42461;53.192;5.646;2022-09-09T15:50:28;4.07;;;2.40;;
56577;SDS011;42461;53.192;5.646;2022-09-09T15:52:57;3.92;;;2.47;;
56577;SDS011;42461;53.192;5.646;2022-09-09T15:55:23;5.53;;;2.92;;
56577;SDS011;42461;53.192;5.646;2022-09-09T15:57:49;5.88;;;3.35;;
56577;SDS011;42461;53.192;5.646;2022-09-09T16:00:17;7.60;;;3.65;;
56577;SDS011;42461;53.192;5.646;2022-09-09T16:02:43;4.45;;;3.92;;
56577;SDS011;42461;53.192;5.646;2022-09-09T16:05:09;4.47;;;3.10;;
56577;SDS011;42461;53.192;5.646;2022-09-09T16:07:35;4.40;;;3.53;;
56577;SDS011;42461;53.192;5.646;2022-09-09T16:10:02;5.18;;;3.72;;
56577;SDS011;42461;53.192;5.646;2022-09-09T16:12:28;5.97;;;3.42;;
56577;SDS011;42461;53.192;5.646;2022-09-09T16:14:54;5.22;;;3.22;;
56577;SDS011;42461;53.192;5.646;2022-09-09T16:17:20;4.38;;;2.53;;
56577;SDS011;42461;53.192;5.646;2022-09-09T16:19:46;5.45;;;2.53;;
56577;SDS011;42461;53.192;5.646;2022-09-09T16:22:12;4.18;;;2.33;;
56577;SDS011;42461;53.192;5.646;2022-09-09T16:24:40;5.85;;;3.47;;
56577;SDS011;42461;53.192;5.646;2022-09-09T16:27:06;8.35;;;7.65;;
56577;SDS011;42461;53.192;5.646;2022-09-09T16:29:32;14.80;;;13.45;;
56577;SDS011;42461;53.192;5.646;2022-09-09T16:32:01;55.15;;;51.00;;
56577;SDS011;42461;53.192;5.646;2022-09-09T16:34:40;5.40;;;3.75;;
56577;SDS011;42461;53.192;5.646;2022-09-09T16:37:07;4.15;;;3.10;;
56577;SDS011;42461;53.192;5.646;2022-09-09T16:39:33;4.22;;;2.90;;
56577;SDS011;42461;53.192;5.646;2022-09-09T16:41:59;3.58;;;2.90;;
56577;SDS011;42461;53.192;5.646;2022-09-09T16:44:26;3.92;;;2.55;;
56577;SDS011;42461;53.192;5.646;2022-09-09T16:46:52;3.13;;;2.47;;
56577;SDS011;42461;53.192;5.646;2022-09-09T16:49:19;3.10;;;2.80;;
56577;SDS011;42461;53.192;5.646;2022-09-09T16:51:49;4.97;;;3.10;;